SWA225 KLAX-KLAS
Flight info
| Callsign | SWA225 |
|---|---|
| Flight time | 0h 50m |
| Altitude | 25000 |
| Route | OSHNN1 MISEN RNDRZ4 |
| Aircraft | B738/M-SADE2E3GIJ4RWZ/LB1D1 |
Departure
| Time | 2026-05-06 15:15 |
|---|---|
| Airport | Los Angeles International Airport (KLAX) |
Arrival
| Time | 2026-05-06 16:06 |
|---|---|
| Airport | Harry Reid International Airport (KLAS) |
| Time | Latitude | Longitude | Altitude | Speed | Heading |
|---|---|---|---|---|---|
| 2026-05-06 14:58 | 33.94766 | -118.40066 | 120 ft | 0 kts | 243° |
| 2026-05-06 15:08 | 33.94767 | -118.40065 | 120 ft | 2 kts | 243° |
| 2026-05-06 15:08 | 33.94772 | -118.40046 | 123 ft | 2 kts | 278° |
| 2026-05-06 15:08 | 33.94765 | -118.40029 | 122 ft | 2 kts | 328° |
| 2026-05-06 15:09 | 33.94750 | -118.40024 | 122 ft | 0 kts | 14° |
| 2026-05-06 15:09 | 33.94751 | -118.40024 | 122 ft | 0 kts | 14° |
| 2026-05-06 15:12 | 33.94755 | -118.40023 | 121 ft | 3 kts | 12° |
| 2026-05-06 15:12 | 33.94793 | -118.40018 | 122 ft | 0 kts | 359° |
| 2026-05-06 15:12 | 33.94798 | -118.40019 | 122 ft | 0 kts | 348° |
| 2026-05-06 15:13 | 33.94814 | -118.40026 | 122 ft | 7 kts | 337° |
| 2026-05-06 15:13 | 33.94895 | -118.40061 | 122 ft | 8 kts | 1° |
| 2026-05-06 15:13 | 33.94928 | -118.40003 | 125 ft | 10 kts | 82° |
| 2026-05-06 15:13 | 33.94946 | -118.39940 | 122 ft | 0 kts | 50° |
| 2026-05-06 15:14 | 33.94978 | -118.39919 | 125 ft | 14 kts | 12° |
| 2026-05-06 15:14 | 33.95038 | -118.39967 | 123 ft | 8 kts | 286° |
| 2026-05-06 15:15 | 33.95015 | -118.40214 | 123 ft | 62 kts | 263° |
| 2026-05-06 15:15 | 33.94931 | -118.41035 | 123 ft | 133 kts | 263° |
| 2026-05-06 15:15 | 33.94792 | -118.42350 | 332 ft | 171 kts | 263° |
| 2026-05-06 15:15 | 33.94649 | -118.43713 | 1254 ft | 164 kts | 263° |
| 2026-05-06 15:16 | 33.94517 | -118.45110 | 1990 ft | 171 kts | 263° |
| 2026-05-06 15:16 | 33.94363 | -118.46656 | 2226 ft | 201 kts | 264° |
| 2026-05-06 15:16 | 33.94279 | -118.48433 | 2448 ft | 223 kts | 268° |
| 2026-05-06 15:16 | 33.94228 | -118.50377 | 2699 ft | 241 kts | 269° |
| 2026-05-06 15:17 | 33.94124 | -118.52480 | 3055 ft | 258 kts | 265° |
| 2026-05-06 15:17 | 33.93949 | -118.54650 | 3787 ft | 261 kts | 265° |
| 2026-05-06 15:17 | 33.93769 | -118.56839 | 4514 ft | 264 kts | 266° |
| 2026-05-06 15:17 | 33.93593 | -118.59032 | 5209 ft | 268 kts | 266° |
| 2026-05-06 15:18 | 33.93257 | -118.61269 | 5843 ft | 277 kts | 249° |
| 2026-05-06 15:18 | 33.92122 | -118.63151 | 6528 ft | 284 kts | 219° |
| 2026-05-06 15:18 | 33.90331 | -118.64137 | 7185 ft | 288 kts | 188° |
| 2026-05-06 15:18 | 33.88321 | -118.64136 | 7898 ft | 291 kts | 175° |
| 2026-05-06 15:19 | 33.86289 | -118.63961 | 8602 ft | 295 kts | 174° |
| 2026-05-06 15:19 | 33.84248 | -118.63635 | 9310 ft | 298 kts | 160° |
| 2026-05-06 15:19 | 33.82411 | -118.62501 | 10107 ft | 296 kts | 143° |
| 2026-05-06 15:19 | 33.80668 | -118.61075 | 10504 ft | 313 kts | 142° |
| 2026-05-06 15:20 | 33.78807 | -118.59510 | 10675 ft | 337 kts | 142° |
| 2026-05-06 15:20 | 33.76814 | -118.57848 | 10850 ft | 359 kts | 142° |
| 2026-05-06 15:20 | 33.74687 | -118.56104 | 11000 ft | 380 kts | 143° |
| 2026-05-06 15:20 | 33.72455 | -118.54290 | 11313 ft | 392 kts | 143° |
| 2026-05-06 15:21 | 33.70354 | -118.52264 | 11823 ft | 394 kts | 129° |
| 2026-05-06 15:21 | 33.68877 | -118.49512 | 12470 ft | 389 kts | 110° |
| 2026-05-06 15:21 | 33.67957 | -118.46458 | 13135 ft | 389 kts | 105° |
| 2026-05-06 15:21 | 33.67098 | -118.43356 | 13756 ft | 394 kts | 105° |
| 2026-05-06 15:22 | 33.66218 | -118.40260 | 14327 ft | 398 kts | 105° |
| 2026-05-06 15:22 | 33.65295 | -118.37109 | 14928 ft | 401 kts | 105° |
| 2026-05-06 15:22 | 33.64468 | -118.33918 | 15513 ft | 401 kts | 97° |
| 2026-05-06 15:22 | 33.64353 | -118.30587 | 16111 ft | 398 kts | 84° |
| 2026-05-06 15:23 | 33.64440 | -118.27250 | 16727 ft | 401 kts | 85° |
| 2026-05-06 15:23 | 33.64473 | -118.23880 | 17301 ft | 405 kts | 86° |
| 2026-05-06 15:23 | 33.64777 | -118.20533 | 17809 ft | 404 kts | 71° |
| 2026-05-06 15:23 | 33.65942 | -118.17474 | 18394 ft | 402 kts | 55° |
| 2026-05-06 15:24 | 33.67731 | -118.14930 | 18885 ft | 401 kts | 40° |
| 2026-05-06 15:24 | 33.69939 | -118.12868 | 19414 ft | 402 kts | 36° |
| 2026-05-06 15:24 | 33.72179 | -118.10909 | 19894 ft | 405 kts | 35° |
| 2026-05-06 15:24 | 33.74475 | -118.08917 | 20395 ft | 407 kts | 35° |
| 2026-05-06 15:25 | 33.76769 | -118.06908 | 20898 ft | 409 kts | 36° |
| 2026-05-06 15:25 | 33.79065 | -118.04874 | 21389 ft | 411 kts | 36° |
| 2026-05-06 15:25 | 33.81369 | -118.02815 | 21859 ft | 414 kts | 36° |
| 2026-05-06 15:25 | 33.83688 | -118.00731 | 22332 ft | 416 kts | 36° |
| 2026-05-06 15:26 | 33.86010 | -117.98640 | 22762 ft | 418 kts | 36° |
| 2026-05-06 15:26 | 33.88345 | -117.96538 | 23185 ft | 421 kts | 36° |
| 2026-05-06 15:26 | 33.90691 | -117.94425 | 23605 ft | 423 kts | 36° |
| 2026-05-06 15:26 | 33.93052 | -117.92279 | 23953 ft | 425 kts | 36° |
| 2026-05-06 15:27 | 33.95409 | -117.90122 | 24277 ft | 427 kts | 36° |
| 2026-05-06 15:27 | 33.97783 | -117.87948 | 24618 ft | 429 kts | 36° |
| 2026-05-06 15:27 | 34.00165 | -117.85766 | 24966 ft | 431 kts | 36° |
| 2026-05-06 15:27 | 34.02569 | -117.83566 | 25144 ft | 434 kts | 36° |
| 2026-05-06 15:28 | 34.04974 | -117.81363 | 25148 ft | 434 kts | 36° |
| 2026-05-06 15:28 | 34.07345 | -117.79190 | 25152 ft | 433 kts | 37° |
| 2026-05-06 15:28 | 34.09653 | -117.76853 | 25146 ft | 433 kts | 46° |
| 2026-05-06 15:28 | 34.11580 | -117.74042 | 25169 ft | 434 kts | 50° |
| 2026-05-06 15:29 | 34.13462 | -117.71172 | 25149 ft | 435 kts | 50° |
| 2026-05-06 15:29 | 34.15340 | -117.68318 | 25144 ft | 435 kts | 50° |
| 2026-05-06 15:29 | 34.17213 | -117.65498 | 25145 ft | 435 kts | 49° |
| 2026-05-06 15:29 | 34.19099 | -117.62677 | 25138 ft | 425 kts | 49° |
| 2026-05-06 15:30 | 34.20942 | -117.59930 | 25130 ft | 414 kts | 49° |
| 2026-05-06 15:30 | 34.22747 | -117.57247 | 25138 ft | 411 kts | 49° |
| 2026-05-06 15:30 | 34.24560 | -117.54552 | 25144 ft | 414 kts | 49° |
| 2026-05-06 15:30 | 34.26379 | -117.51844 | 25121 ft | 416 kts | 49° |
| 2026-05-06 15:31 | 34.28204 | -117.49124 | 25124 ft | 417 kts | 49° |
| 2026-05-06 15:31 | 34.30033 | -117.46395 | 25115 ft | 417 kts | 49° |
| 2026-05-06 15:31 | 34.31835 | -117.43703 | 25110 ft | 416 kts | 49° |
| 2026-05-06 15:32 | 34.35473 | -117.38265 | 25129 ft | 414 kts | 49° |
| 2026-05-06 15:32 | 34.37281 | -117.35558 | 25131 ft | 413 kts | 49° |
| 2026-05-06 15:32 | 34.39088 | -117.32851 | 25137 ft | 412 kts | 49° |
| 2026-05-06 15:32 | 34.40890 | -117.30151 | 25140 ft | 411 kts | 49° |
| 2026-05-06 15:33 | 34.42686 | -117.27456 | 25143 ft | 411 kts | 49° |
| 2026-05-06 15:33 | 34.44462 | -117.24790 | 25142 ft | 411 kts | 49° |
| 2026-05-06 15:33 | 34.46257 | -117.22092 | 25137 ft | 411 kts | 49° |
| 2026-05-06 15:33 | 34.48055 | -117.19387 | 25141 ft | 411 kts | 49° |
| 2026-05-06 15:34 | 34.49853 | -117.16682 | 25138 ft | 412 kts | 49° |
| 2026-05-06 15:34 | 34.51650 | -117.13975 | 25129 ft | 412 kts | 49° |
| 2026-05-06 15:34 | 34.53451 | -117.11261 | 25124 ft | 413 kts | 49° |
| 2026-05-06 15:34 | 34.55255 | -117.08562 | 25120 ft | 413 kts | 49° |
| 2026-05-06 15:35 | 34.57090 | -117.05877 | 25106 ft | 413 kts | 49° |
| 2026-05-06 15:35 | 34.58938 | -117.03200 | 25101 ft | 413 kts | 48° |
| 2026-05-06 15:35 | 34.60785 | -117.00527 | 25082 ft | 413 kts | 49° |
| 2026-05-06 15:35 | 34.62629 | -116.97853 | 25085 ft | 413 kts | 49° |
| 2026-05-06 15:36 | 34.64472 | -116.95171 | 25085 ft | 413 kts | 49° |
| 2026-05-06 15:36 | 34.66292 | -116.92518 | 25090 ft | 413 kts | 49° |
| 2026-05-06 15:36 | 34.68127 | -116.89839 | 25103 ft | 413 kts | 49° |
| 2026-05-06 15:36 | 34.69959 | -116.87160 | 25104 ft | 413 kts | 49° |
| 2026-05-06 15:37 | 34.71801 | -116.84464 | 25106 ft | 413 kts | 49° |
| 2026-05-06 15:37 | 34.73636 | -116.81776 | 25114 ft | 413 kts | 49° |
| 2026-05-06 15:37 | 34.75484 | -116.79068 | 25117 ft | 413 kts | 49° |
| 2026-05-06 15:37 | 34.77316 | -116.76380 | 25124 ft | 413 kts | 49° |
| 2026-05-06 15:38 | 34.79156 | -116.73679 | 25123 ft | 414 kts | 49° |
| 2026-05-06 15:38 | 34.80995 | -116.70976 | 25121 ft | 414 kts | 49° |
| 2026-05-06 15:38 | 34.82829 | -116.68281 | 25122 ft | 414 kts | 49° |
| 2026-05-06 15:38 | 34.84663 | -116.65584 | 25110 ft | 414 kts | 49° |
| 2026-05-06 15:39 | 34.86646 | -116.63070 | 25105 ft | 412 kts | 39° |
| 2026-05-06 15:39 | 34.88880 | -116.60887 | 25106 ft | 411 kts | 37° |
| 2026-05-06 15:39 | 34.91117 | -116.58794 | 25097 ft | 411 kts | 37° |
| 2026-05-06 15:39 | 34.93385 | -116.56673 | 25093 ft | 411 kts | 37° |
| 2026-05-06 15:40 | 34.95643 | -116.54535 | 25090 ft | 411 kts | 37° |
| 2026-05-06 15:40 | 34.97892 | -116.52378 | 25079 ft | 411 kts | 38° |
| 2026-05-06 15:40 | 35.00137 | -116.50204 | 25069 ft | 411 kts | 38° |
| 2026-05-06 15:40 | 35.02374 | -116.48029 | 25064 ft | 411 kts | 38° |
| 2026-05-06 15:41 | 35.04614 | -116.45846 | 25065 ft | 411 kts | 38° |
| 2026-05-06 15:41 | 35.06855 | -116.43663 | 25075 ft | 415 kts | 38° |
| 2026-05-06 15:41 | 35.09140 | -116.41437 | 25080 ft | 424 kts | 38° |
| 2026-05-06 15:41 | 35.11405 | -116.39083 | 25077 ft | 431 kts | 43° |
| 2026-05-06 15:42 | 35.13517 | -116.36436 | 25079 ft | 437 kts | 46° |
| 2026-05-06 15:42 | 35.15560 | -116.33677 | 25070 ft | 437 kts | 47° |
| 2026-05-06 15:42 | 35.17588 | -116.30928 | 25063 ft | 435 kts | 46° |
| 2026-05-06 15:42 | 35.19615 | -116.28249 | 25061 ft | 434 kts | 45° |
| 2026-05-06 15:43 | 35.21683 | -116.25567 | 25063 ft | 433 kts | 45° |
| 2026-05-06 15:43 | 35.23760 | -116.22870 | 25057 ft | 433 kts | 46° |
| 2026-05-06 15:43 | 35.25774 | -116.20131 | 24951 ft | 433 kts | 47° |
| 2026-05-06 15:43 | 35.27781 | -116.17345 | 24269 ft | 433 kts | 47° |
| 2026-05-06 15:44 | 35.29774 | -116.14584 | 23494 ft | 430 kts | 47° |
| 2026-05-06 15:44 | 35.31748 | -116.11867 | 22701 ft | 424 kts | 47° |
| 2026-05-06 15:44 | 35.33645 | -116.09263 | 21946 ft | 419 kts | 47° |
| 2026-05-06 15:44 | 35.35579 | -116.06608 | 21206 ft | 414 kts | 47° |
| 2026-05-06 15:45 | 35.37487 | -116.03987 | 20500 ft | 409 kts | 47° |
| 2026-05-06 15:45 | 35.39367 | -116.01403 | 19804 ft | 404 kts | 47° |
| 2026-05-06 15:45 | 35.41227 | -115.98842 | 19129 ft | 400 kts | 47° |
| 2026-05-06 15:45 | 35.43072 | -115.96301 | 18451 ft | 396 kts | 47° |
| 2026-05-06 15:46 | 35.44897 | -115.93785 | 17686 ft | 393 kts | 47° |
| 2026-05-06 15:46 | 35.46704 | -115.91292 | 17175 ft | 385 kts | 47° |
| 2026-05-06 15:46 | 35.48312 | -115.89069 | 17036 ft | 370 kts | 47° |
| 2026-05-06 15:46 | 35.49971 | -115.86776 | 16864 ft | 356 kts | 47° |
| 2026-05-06 15:47 | 35.51580 | -115.84550 | 16725 ft | 343 kts | 47° |
| 2026-05-06 15:47 | 35.53134 | -115.82401 | 16582 ft | 331 kts | 47° |
| 2026-05-06 15:47 | 35.54638 | -115.80320 | 16445 ft | 319 kts | 47° |
| 2026-05-06 15:47 | 35.56090 | -115.78308 | 16313 ft | 309 kts | 47° |
| 2026-05-06 15:48 | 35.57472 | -115.76394 | 16195 ft | 299 kts | 47° |
| 2026-05-06 15:48 | 35.58833 | -115.74505 | 16070 ft | 290 kts | 47° |
| 2026-05-06 15:48 | 35.60165 | -115.72683 | 15935 ft | 284 kts | 46° |
| 2026-05-06 15:48 | 35.60835 | -115.71779 | 15870 ft | 285 kts | 46° |
| 2026-05-06 15:49 | 35.62318 | -115.69786 | 15726 ft | 294 kts | 46° |
| 2026-05-06 15:49 | 35.63716 | -115.67905 | 15514 ft | 300 kts | 46° |
| 2026-05-06 15:49 | 35.65123 | -115.66009 | 15359 ft | 299 kts | 46° |
| 2026-05-06 15:50 | 35.66493 | -115.64158 | 15201 ft | 296 kts | 46° |
| 2026-05-06 15:50 | 35.67861 | -115.62307 | 15066 ft | 295 kts | 46° |
| 2026-05-06 15:50 | 35.69256 | -115.60420 | 14912 ft | 294 kts | 46° |
| 2026-05-06 15:50 | 35.70612 | -115.58584 | 14765 ft | 293 kts | 46° |
| 2026-05-06 15:51 | 35.71982 | -115.56729 | 14625 ft | 292 kts | 46° |
| 2026-05-06 15:51 | 35.73471 | -115.55043 | 14460 ft | 291 kts | 32° |
| 2026-05-06 15:51 | 35.75209 | -115.53785 | 14338 ft | 290 kts | 28° |
| 2026-05-06 15:51 | 35.76983 | -115.52580 | 14190 ft | 291 kts | 28° |
| 2026-05-06 15:52 | 35.78759 | -115.51374 | 14040 ft | 292 kts | 28° |
| 2026-05-06 15:52 | 35.80397 | -115.50250 | 13902 ft | 292 kts | 28° |
| 2026-05-06 15:52 | 35.82169 | -115.49023 | 13747 ft | 293 kts | 28° |
| 2026-05-06 15:52 | 35.83923 | -115.47800 | 13586 ft | 293 kts | 28° |
| 2026-05-06 15:53 | 35.85695 | -115.46561 | 13421 ft | 293 kts | 28° |
| 2026-05-06 15:53 | 35.87428 | -115.45345 | 13280 ft | 292 kts | 28° |
| 2026-05-06 15:53 | 35.89194 | -115.44104 | 13133 ft | 291 kts | 28° |
| 2026-05-06 15:53 | 35.90950 | -115.42871 | 12937 ft | 292 kts | 28° |
| 2026-05-06 15:54 | 35.92732 | -115.41626 | 12599 ft | 295 kts | 28° |
| 2026-05-06 15:54 | 35.94520 | -115.40380 | 12271 ft | 293 kts | 28° |
| 2026-05-06 15:54 | 35.96293 | -115.39143 | 11936 ft | 291 kts | 28° |
| 2026-05-06 15:54 | 35.98054 | -115.37914 | 11614 ft | 288 kts | 28° |
| 2026-05-06 15:55 | 35.99200 | -115.37097 | 11400 ft | 287 kts | 32° |
| 2026-05-06 15:55 | 36.00000 | -115.36302 | 11220 ft | 288 kts | 45° |
| 2026-05-06 15:55 | 36.01279 | -115.33467 | 10875 ft | 287 kts | 72° |
| 2026-05-06 15:55 | 36.01486 | -115.31014 | 10566 ft | 290 kts | 88° |
| 2026-05-06 15:56 | 36.01375 | -115.28519 | 10253 ft | 290 kts | 91° |
| 2026-05-06 15:56 | 36.01275 | -115.26888 | 10159 ft | 285 kts | 91° |
| 2026-05-06 15:56 | 36.01125 | -115.24481 | 10037 ft | 278 kts | 91° |
| 2026-05-06 15:56 | 36.00986 | -115.22098 | 9731 ft | 276 kts | 90° |
| 2026-05-06 15:57 | 36.00859 | -115.19770 | 9597 ft | 267 kts | 90° |
| 2026-05-06 15:57 | 36.00741 | -115.17508 | 9483 ft | 259 kts | 90° |
| 2026-05-06 15:57 | 36.00629 | -115.15314 | 9386 ft | 251 kts | 90° |
| 2026-05-06 15:57 | 36.00521 | -115.13192 | 9262 ft | 244 kts | 90° |
| 2026-05-06 15:58 | 36.00417 | -115.11135 | 9150 ft | 237 kts | 90° |
| 2026-05-06 15:58 | 36.00317 | -115.09135 | 8924 ft | 235 kts | 90° |
| 2026-05-06 15:58 | 36.00215 | -115.07120 | 8696 ft | 234 kts | 90° |
| 2026-05-06 15:58 | 36.00113 | -115.05115 | 8464 ft | 234 kts | 90° |
| 2026-05-06 15:59 | 36.00010 | -115.03108 | 8220 ft | 234 kts | 90° |
| 2026-05-06 15:59 | 35.99912 | -115.01101 | 7956 ft | 234 kts | 89° |
| 2026-05-06 15:59 | 35.99887 | -114.99077 | 7665 ft | 236 kts | 87° |
| 2026-05-06 15:59 | 35.99882 | -114.97061 | 7377 ft | 231 kts | 88° |
| 2026-05-06 16:00 | 35.99875 | -114.95143 | 7063 ft | 221 kts | 87° |
| 2026-05-06 16:00 | 35.99971 | -114.93274 | 6742 ft | 209 kts | 70° |
| 2026-05-06 16:00 | 36.00690 | -114.91833 | 6523 ft | 197 kts | 43° |
| 2026-05-06 16:00 | 36.01781 | -114.90843 | 6288 ft | 192 kts | 30° |
| 2026-05-06 16:01 | 36.02953 | -114.90064 | 6030 ft | 192 kts | 16° |
| 2026-05-06 16:01 | 36.04272 | -114.90024 | 5769 ft | 193 kts | 342° |
| 2026-05-06 16:01 | 36.05463 | -114.90813 | 5491 ft | 193 kts | 328° |
| 2026-05-06 16:01 | 36.06560 | -114.91740 | 5280 ft | 187 kts | 314° |
| 2026-05-06 16:02 | 36.07053 | -114.93092 | 5131 ft | 168 kts | 279° |
| 2026-05-06 16:02 | 36.07197 | -114.94474 | 4896 ft | 153 kts | 277° |
| 2026-05-06 16:02 | 36.07309 | -114.95724 | 4728 ft | 146 kts | 276° |
| 2026-05-06 16:02 | 36.07363 | -114.97002 | 4536 ft | 151 kts | 273° |
| 2026-05-06 16:03 | 36.07376 | -114.98297 | 4339 ft | 150 kts | 271° |
| 2026-05-06 16:03 | 36.07380 | -114.99588 | 4159 ft | 149 kts | 271° |
| 2026-05-06 16:03 | 36.07380 | -115.00870 | 3945 ft | 148 kts | 270° |
| 2026-05-06 16:03 | 36.07378 | -115.02150 | 3775 ft | 150 kts | 270° |
| 2026-05-06 16:04 | 36.07377 | -115.03441 | 3570 ft | 149 kts | 269° |
| 2026-05-06 16:04 | 36.07375 | -115.04704 | 3377 ft | 149 kts | 269° |
| 2026-05-06 16:04 | 36.07373 | -115.05983 | 3180 ft | 149 kts | 269° |
| 2026-05-06 16:04 | 36.07371 | -115.07270 | 2975 ft | 150 kts | 269° |
| 2026-05-06 16:05 | 36.07370 | -115.08559 | 2766 ft | 149 kts | 269° |
| 2026-05-06 16:05 | 36.07367 | -115.09833 | 2592 ft | 148 kts | 270° |
| 2026-05-06 16:05 | 36.07367 | -115.11113 | 2376 ft | 148 kts | 271° |
| 2026-05-06 16:05 | 36.07367 | -115.12377 | 2201 ft | 147 kts | 271° |
| 2026-05-06 16:06 | 36.07368 | -115.13629 | 2085 ft | 140 kts | 271° |
| 2026-05-06 16:06 | 36.07446 | -115.14603 | 2121 ft | 61 kts | 320° |
| 2026-05-06 16:06 | 36.07495 | -115.14654 | 2126 ft | 0 kts | 349° |
| 2026-05-06 16:06 | 36.07499 | -115.14655 | 2127 ft | 0 kts | 349° |
| 2026-05-06 16:07 | 36.07520 | -115.14658 | 2129 ft | 14 kts | 356° |
| 2026-05-06 16:08 | 36.07730 | -115.14653 | 2128 ft | 36 kts | 17° |
| 2026-05-06 16:08 | 36.07761 | -115.14397 | 2117 ft | 33 kts | 102° |
| 2026-05-06 16:08 | 36.07898 | -115.14127 | 2104 ft | 46 kts | 38° |
| 2026-05-06 16:08 | 36.07992 | -115.14039 | 2099 ft | 0 kts | 37° |